Time;durP1;ratioP1;P1;durP2;ratioP2;P2;SDS_P1;SDS_P2;PMS_P1;PMS_P2;Temp;Humidity;BMP_temperature;BMP_pressure;BME280_temperature;BME280_humidity;BME280_pressure;Samples;Min_cycle;Max_cycle;Signal;HPM_P1;HPM_P2
2023/07/04 00:00:04;;;;;;;0.00;0.00;;;;;;;;;;1763530;27;20752;-65
2023/07/04 00:00:59;;;;;;;0.00;0.00;;;;;;;;;;1758650;27;20224;-65
2023/07/04 00:01:51;;;;;;;0.00;0.00;;;;;;;;;;1758824;27;20615;-65
2023/07/04 00:02:42;;;;;;;0.00;0.00;;;;;;;;;;1758791;28;20207;-66
2023/07/04 00:03:34;;;;;;;0.10;0.10;;;;;;;;;;1755673;28;20304;-65
2023/07/04 00:04:29;;;;;;;0.00;0.00;;;;;;;;;;1752647;28;20675;-66
2023/07/04 00:05:23;;;;;;;0.00;0.00;;;;;;;;;;1758110;28;20197;-64
2023/07/04 00:06:15;;;;;;;0.00;0.00;;;;;;;;;;1752113;28;20244;-64
2023/07/04 00:07:07;;;;;;;0.00;0.00;;;;;;;;;;1751579;28;20205;-64
2023/07/04 00:07:59;;;;;;;0.00;0.00;;;;;;;;;;1752926;27;20206;-64
2023/07/04 00:08:51;;;;;;;0.00;0.00;;;;;;;;;;1755873;28;20205;-64
2023/07/04 00:09:43;;;;;;;0.00;0.00;;;;;;;;;;1758455;28;20660;-65
2023/07/04 00:10:38;;;;;;;0.00;0.00;;;;;;;;;;1760614;27;20201;-64
2023/07/04 00:11:30;;;;;;;0.00;0.00;;;;;;;;;;1757523;27;20660;-64
2023/07/04 00:12:22;;;;;;;0.00;0.00;;;;;;;;;;1755220;27;20261;-63
2023/07/04 00:13:13;;;;;;;0.00;0.00;;;;;;;;;;1752323;28;20197;-64
2023/07/04 00:14:06;;;;;;;0.00;0.00;;;;;;;;;;1752181;28;20708;-64
2023/07/04 00:14:57;;;;;;;0.00;0.00;;;;;;;;;;1762360;27;20205;-64
2023/07/04 00:15:49;;;;;;;0.00;0.00;;;;;;;;;;1759668;27;20244;-64
2023/07/04 00:16:40;;;;;;;0.00;0.00;;;;;;;;;;1757920;27;20260;-65
2023/07/04 00:17:32;;;;;;;0.00;0.00;;;;;;;;;;1752788;27;20194;-64
2023/07/04 00:18:25;;;;;;;0.00;0.00;;;;;;;;;;1752524;28;20262;-64
2023/07/04 00:19:17;;;;;;;0.00;0.00;;;;;;;;;;1755200;27;20663;-63
2023/07/04 00:20:08;;;;;;;0.00;0.00;;;;;;;;;;1763587;27;20252;-64
2023/07/04 00:21:03;;;;;;;0.00;0.00;;;;;;;;;;1754836;28;20751;-64
2023/07/04 00:21:55;;;;;;;0.00;0.00;;;;;;;;;;1758228;28;20603;-64
2023/07/04 00:22:47;;;;;;;0.00;0.00;;;;;;;;;;1752595;27;20201;-64
2023/07/04 00:23:41;;;;;;;0.00;0.00;;;;;;;;;;1753922;28;20197;-64
2023/07/04 00:24:32;;;;;;;0.00;0.00;;;;;;;;;;1758602;28;20683;-64
2023/07/04 00:25:25;;;;;;;0.00;0.00;;;;;;;;;;1758304;28;20859;-64
2023/07/04 00:26:17;;;;;;;0.00;0.00;;;;;;;;;;1754190;28;20251;-64
2023/07/04 00:27:12;;;;;;;0.00;0.00;;;;;;;;;;1755351;28;20675;-64
2023/07/04 00:28:05;;;;;;;0.00;0.00;;;;;;;;;;1758708;28;20253;-64
2023/07/04 00:28:57;;;;;;;0.00;0.00;;;;;;;;;;1753815;28;20672;-64
2023/07/04 00:29:50;;;;;;;0.00;0.00;;;;;;;;;;1755647;28;20208;-64
2023/07/04 00:30:42;;;;;;;0.00;0.00;;;;;;;;;;1755195;28;20197;-64
2023/07/04 00:31:33;;;;;;;0.00;0.00;;;;;;;;;;1753379;28;20234;-64
2023/07/04 00:32:25;;;;;;;0.00;0.00;;;;;;;;;;1745661;28;20602;-64
2023/07/04 00:33:16;;;;;;;0.00;0.00;;;;;;;;;;1752009;28;20243;-64
2023/07/04 00:34:08;;;;;;;0.00;0.00;;;;;;;;;;1752557;28;20271;-64
2023/07/04 00:35:00;;;;;;;0.00;0.00;;;;;;;;;;1762866;28;20969;-64
2023/07/04 00:35:59;;;;;;;0.00;0.00;;;;;;;;;;1759373;28;20276;-64
2023/07/04 00:36:51;;;;;;;0.10;0.10;;;;;;;;;;1755362;28;20885;-64
2023/07/04 00:37:43;;;;;;;0.00;0.00;;;;;;;;;;1753112;28;20204;-64
2023/07/04 00:38:36;;;;;;;0.00;0.00;;;;;;;;;;1753057;28;20661;-64
2023/07/04 00:39:29;;;;;;;0.00;0.00;;;;;;;;;;1754120;28;20201;-64
2023/07/04 00:40:21;;;;;;;0.00;0.00;;;;;;;;;;1761577;28;20548;-64
2023/07/04 00:41:13;;;;;;;0.00;0.00;;;;;;;;;;1759011;28;20277;-64
2023/07/04 00:42:08;;;;;;;0.00;0.00;;;;;;;;;;1759469;28;20626;-64
2023/07/04 00:43:03;;;;;;;0.00;0.00;;;;;;;;;;1753174;28;20206;-64
2023/07/04 00:44:09;;;;;;;0.00;0.00;;;;;;;;;;1756058;28;20260;-64
2023/07/04 00:45:00;;;;;;;0.00;0.00;;;;;;;;;;1764753;28;20710;-64
2023/07/04 00:45:56;;;;;;;0.00;0.00;;;;;;;;;;1759485;28;20626;-64
2023/07/04 00:46:53;;;;;;;0.00;0.00;;;;;;;;;;1758781;28;20211;-64
2023/07/04 00:47:52;;;;;;;0.00;0.00;;;;;;;;;;1753965;28;20247;-64
2023/07/04 00:48:47;;;;;;;0.00;0.00;;;;;;;;;;1756422;28;20604;-64
2023/07/04 00:49:43;;;;;;;0.00;0.00;;;;;;;;;;1756562;28;20219;-64
2023/07/04 00:50:36;;;;;;;0.00;0.00;;;;;;;;;;1761041;28;20194;-64
2023/07/04 00:51:31;;;;;;;0.00;0.00;;;;;;;;;;1755216;28;20569;-64
2023/07/04 00:52:25;;;;;;;0.00;0.00;;;;;;;;;;1754960;28;20194;-64
2023/07/04 00:53:17;;;;;;;0.00;0.00;;;;;;;;;;1753745;28;20198;-64
2023/07/04 00:54:08;;;;;;;0.00;0.00;;;;;;;;;;1752590;28;20228;-64
2023/07/04 00:55:04;;;;;;;0.00;0.00;;;;;;;;;;1757044;28;20204;-64
2023/07/04 00:55:58;;;;;;;0.00;0.00;;;;;;;;;;1758118;28;20200;-65
2023/07/04 00:56:50;;;;;;;0.00;0.00;;;;;;;;;;1758319;28;20204;-64
2023/07/04 00:57:41;;;;;;;0.00;0.00;;;;;;;;;;1753307;28;20275;-64
2023/07/04 00:58:33;;;;;;;0.00;0.00;;;;;;;;;;1754601;28;20190;-64
2023/07/04 00:59:25;;;;;;;0.00;0.00;;;;;;;;;;1759792;28;20235;-65
2023/07/04 01:00:20;;;;;;;0.00;0.00;;;;;;;;;;1760038;28;20578;-65
2023/07/04 01:01:11;;;;;;;0.00;0.00;;;;;;;;;;1753394;28;20922;-65
2023/07/04 01:02:03;;;;;;;0.00;0.00;;;;;;;;;;1753820;28;20312;-64
2023/07/04 01:03:04;;;;;;;0.00;0.00;;;;;;;;;;1758752;27;20694;-64
2023/07/04 01:03:58;;;;;;;0.00;0.00;;;;;;;;;;1755277;28;20312;-64
2023/07/04 01:04:49;;;;;;;0.00;0.00;;;;;;;;;;1757691;27;20212;-65
2023/07/04 01:05:45;;;;;;;0.00;0.00;;;;;;;;;;1760184;27;20495;-65
2023/07/04 01:06:41;;;;;;;0.00;0.00;;;;;;;;;;1757251;27;20681;-64
2023/07/04 01:07:35;;;;;;;0.00;0.00;;;;;;;;;;1754782;28;20637;-64
2023/07/04 01:08:28;;;;;;;0.00;0.00;;;;;;;;;;1759660;28;20261;-65
2023/07/04 01:09:21;;;;;;;0.00;0.00;;;;;;;;;;1753396;28;20202;-64
2023/07/04 01:10:18;;;;;;;0.00;0.00;;;;;;;;;;1757898;28;20201;-65
2023/07/04 01:11:12;;;;;;;0.00;0.00;;;;;;;;;;1760277;27;20205;-65
2023/07/04 01:12:05;;;;;;;0.00;0.00;;;;;;;;;;1760338;27;20287;-64
2023/07/04 01:12:56;;;;;;;0.00;0.00;;;;;;;;;;1754188;27;20209;-64
2023/07/04 01:13:48;;;;;;;0.00;0.00;;;;;;;;;;1753798;27;20308;-64
2023/07/04 01:14:39;;;;;;;0.00;0.00;;;;;;;;;;1755839;27;20205;-64
2023/07/04 01:15:31;;;;;;;0.00;0.00;;;;;;;;;;1755324;27;20216;-65
2023/07/04 01:16:22;;;;;;;0.00;0.00;;;;;;;;;;1756804;27;20658;-65
2023/07/04 01:17:14;;;;;;;0.00;0.00;;;;;;;;;;1759034;27;20659;-64
2023/07/04 01:18:06;;;;;;;0.00;0.00;;;;;;;;;;1754202;27;20243;-64
2023/07/04 01:18:58;;;;;;;0.00;0.00;;;;;;;;;;1753623;27;20201;-65
2023/07/04 01:19:50;;;;;;;0.00;0.00;;;;;;;;;;1762311;27;20204;-64
2023/07/04 01:20:41;;;;;;;0.00;0.00;;;;;;;;;;1761923;27;20204;-65
2023/07/04 01:21:34;;;;;;;0.00;0.00;;;;;;;;;;1756468;27;20270;-65
2023/07/04 01:22:29;;;;;;;0.00;0.00;;;;;;;;;;1756217;27;20220;-64
2023/07/04 01:23:25;;;;;;;0.00;0.00;;;;;;;;;;1752757;28;20193;-64
2023/07/04 01:24:19;;;;;;;0.00;0.00;;;;;;;;;;1760298;28;20193;-64
2023/07/04 01:25:13;;;;;;;0.00;0.00;;;;;;;;;;1764695;27;20656;-65
2023/07/04 01:26:25;;;;;;;0.00;0.00;;;;;;;;;;1758894;28;20213;-65
2023/07/04 01:27:16;;;;;;;0.00;0.00;;;;;;;;;;1752924;28;21014;-64
2023/07/04 01:28:09;;;;;;;0.00;0.00;;;;;;;;;;1759438;28;20209;-64
2023/07/04 01:29:01;;;;;;;0.00;0.00;;;;;;;;;;1753517;27;20254;-65
2023/07/04 01:29:54;;;;;;;0.00;0.00;;;;;;;;;;1757313;28;20204;-64
2023/07/04 01:30:45;;;;;;;0.00;0.00;;;;;;;;;;1759364;28;20201;-65
2023/07/04 01:31:37;;;;;;;0.00;0.00;;;;;;;;;;1755017;28;20242;-64
2023/07/04 01:32:28;;;;;;;0.00;0.00;;;;;;;;;;1752305;28;20201;-64
2023/07/04 01:33:21;;;;;;;0.00;0.00;;;;;;;;;;1753255;28;20198;-64
2023/07/04 01:34:13;;;;;;;0.00;0.00;;;;;;;;;;1753367;28;20220;-64
2023/07/04 01:35:06;;;;;;;0.00;0.00;;;;;;;;;;1764410;27;20655;-64
2023/07/04 01:35:57;;;;;;;0.00;0.00;;;;;;;;;;1759750;27;20204;-64
2023/07/04 01:36:49;;;;;;;0.00;0.00;;;;;;;;;;1760052;27;20664;-64
2023/07/04 01:37:40;;;;;;;0.00;0.00;;;;;;;;;;1754498;27;20501;-64
2023/07/04 01:38:32;;;;;;;0.00;0.00;;;;;;;;;;1754275;28;20696;-65
2023/07/04 01:39:25;;;;;;;0.00;0.00;;;;;;;;;;1753254;27;20205;-65
2023/07/04 01:40:17;;;;;;;0.00;0.00;;;;;;;;;;1763867;27;20415;-65
2023/07/04 01:41:08;;;;;;;0.00;0.00;;;;;;;;;;1756189;28;20205;-64
2023/07/04 01:42:05;;;;;;;0.00;0.00;;;;;;;;;;1759489;28;20219;-65
2023/07/04 01:42:56;;;;;;;0.00;0.00;;;;;;;;;;1756019;27;20328;-64
2023/07/04 01:43:50;;;;;;;0.00;0.00;;;;;;;;;;1752981;27;20240;-64
2023/07/04 01:44:41;;;;;;;0.00;0.00;;;;;;;;;;1758409;27;20561;-64
2023/07/04 01:45:33;;;;;;;0.00;0.00;;;;;;;;;;1761648;27;20692;-65
2023/07/04 01:46:24;;;;;;;0.00;0.00;;;;;;;;;;1756419;27;20250;-64
2023/07/04 01:47:18;;;;;;;0.00;0.00;;;;;;;;;;1760091;28;20207;-64
2023/07/04 01:48:09;;;;;;;0.00;0.00;;;;;;;;;;1756839;28;20208;-64
2023/07/04 01:49:01;;;;;;;0.00;0.00;;;;;;;;;;1754951;27;20288;-64
2023/07/04 01:49:53;;;;;;;0.00;0.00;;;;;;;;;;1761360;27;20242;-65
2023/07/04 01:50:45;;;;;;;0.00;0.00;;;;;;;;;;1761982;27;20198;-64
2023/07/04 01:51:38;;;;;;;0.00;0.00;;;;;;;;;;1752591;28;20260;-65
2023/07/04 01:52:31;;;;;;;0.00;0.00;;;;;;;;;;1752946;28;20194;-64
2023/07/04 01:53:22;;;;;;;0.00;0.00;;;;;;;;;;1755592;27;20205;-64
2023/07/04 01:54:17;;;;;;;0.00;0.00;;;;;;;;;;1759217;28;20201;-64
2023/07/04 01:55:09;;;;;;;0.00;0.00;;;;;;;;;;1754843;27;20211;-65
2023/07/04 01:56:01;;;;;;;0.00;0.00;;;;;;;;;;1757416;28;20200;-64
2023/07/04 01:56:52;;;;;;;0.00;0.00;;;;;;;;;;1759634;28;20201;-64
2023/07/04 01:57:46;;;;;;;0.00;0.00;;;;;;;;;;1758608;28;20482;-65
2023/07/04 01:58:37;;;;;;;0.00;0.00;;;;;;;;;;1759501;28;20209;-65
2023/07/04 01:59:29;;;;;;;0.00;0.00;;;;;;;;;;1759658;28;20720;-64
2023/07/04 02:00:22;;;;;;;0.00;0.00;;;;;;;;;;1756759;28;20253;-65
2023/07/04 02:01:14;;;;;;;0.00;0.00;;;;;;;;;;1753009;28;21018;-65
2023/07/04 02:02:05;;;;;;;0.00;0.00;;;;;;;;;;1756670;27;20205;-65
2023/07/04 02:02:58;;;;;;;0.00;0.00;;;;;;;;;;1756155;27;20223;-65
2023/07/04 02:03:49;;;;;;;0.00;0.00;;;;;;;;;;1754417;27;20278;-65
2023/07/04 02:04:41;;;;;;;0.00;0.00;;;;;;;;;;1757933;27;20474;-65
2023/07/04 02:05:32;;;;;;;0.00;0.00;;;;;;;;;;1762086;27;20685;-65
2023/07/04 02:06:24;;;;;;;0.00;0.00;;;;;;;;;;1754619;27;20288;-64
2023/07/04 02:07:15;;;;;;;0.00;0.00;;;;;;;;;;1758340;27;20244;-65
2023/07/04 02:08:08;;;;;;;0.00;0.00;;;;;;;;;;1753958;27;20610;-65
2023/07/04 02:08:59;;;;;;;0.00;0.00;;;;;;;;;;1753027;27;20210;-65
2023/07/04 02:09:51;;;;;;;0.00;0.00;;;;;;;;;;1756472;28;20202;-65
2023/07/04 02:10:42;;;;;;;0.00;0.00;;;;;;;;;;1762598;27;20200;-65
2023/07/04 02:11:34;;;;;;;0.00;0.00;;;;;;;;;;1758862;27;20189;-64
2023/07/04 02:12:25;;;;;;;0.00;0.00;;;;;;;;;;1756289;27;20202;-64
2023/07/04 02:13:18;;;;;;;0.00;0.00;;;;;;;;;;1753371;28;20757;-64
2023/07/04 02:14:09;;;;;;;0.00;0.00;;;;;;;;;;1753826;27;20233;-65
2023/07/04 02:15:01;;;;;;;0.00;0.00;;;;;;;;;;1763982;27;20234;-64
2023/07/04 02:15:52;;;;;;;0.00;0.00;;;;;;;;;;1757489;27;20671;-65
2023/07/04 02:16:44;;;;;;;0.00;0.00;;;;;;;;;;1762920;27;20665;-65
2023/07/04 02:17:36;;;;;;;0.00;0.00;;;;;;;;;;1753905;27;20705;-65
2023/07/04 02:18:27;;;;;;;0.00;0.00;;;;;;;;;;1753532;28;20289;-65
2023/07/04 02:19:19;;;;;;;0.00;0.00;;;;;;;;;;1757477;27;20206;-65
2023/07/04 02:20:11;;;;;;;0.00;0.00;;;;;;;;;;1752510;28;20639;-65
2023/07/04 02:21:03;;;;;;;0.00;0.00;;;;;;;;;;1759130;27;20311;-65
2023/07/04 02:21:54;;;;;;;0.00;0.00;;;;;;;;;;1758913;27;20280;-65
2023/07/04 02:22:46;;;;;;;0.00;0.00;;;;;;;;;;1753560;27;20728;-65
2023/07/04 02:23:37;;;;;;;0.00;0.00;;;;;;;;;;1752956;27;20310;-65
2023/07/04 02:24:29;;;;;;;0.00;0.00;;;;;;;;;;1754277;27;20225;-65
2023/07/04 02:25:20;;;;;;;0.00;0.00;;;;;;;;;;1761980;27;20256;-65
2023/07/04 02:26:13;;;;;;;0.00;0.00;;;;;;;;;;1759135;27;20209;-65
2023/07/04 02:27:04;;;;;;;0.00;0.00;;;;;;;;;;1758742;27;20226;-65
2023/07/04 02:27:56;;;;;;;0.00;0.00;;;;;;;;;;1752938;28;20205;-65
2023/07/04 02:28:48;;;;;;;0.00;0.00;;;;;;;;;;1752518;28;20213;-65
2023/07/04 02:29:40;;;;;;;0.00;0.00;;;;;;;;;;1757026;27;20699;-65
2023/07/04 02:30:31;;;;;;;0.00;0.00;;;;;;;;;;1758438;27;20234;-65
2023/07/04 02:31:24;;;;;;;0.00;0.00;;;;;;;;;;1760069;27;20223;-63
2023/07/04 02:32:15;;;;;;;0.00;0.00;;;;;;;;;;1758450;27;20201;-65
2023/07/04 02:33:07;;;;;;;0.00;0.00;;;;;;;;;;1753588;28;20258;-66
2023/07/04 02:33:58;;;;;;;0.00;0.00;;;;;;;;;;1753121;27;20229;-65
2023/07/04 02:34:50;;;;;;;0.00;0.00;;;;;;;;;;1751401;28;20409;-65
2023/07/04 02:35:45;;;;;;;0.00;0.00;;;;;;;;;;1757226;27;20254;-66
2023/07/04 02:36:37;;;;;;;0.00;0.00;;;;;;;;;;1756707;27;20190;-65
2023/07/04 02:37:28;;;;;;;0.00;0.00;;;;;;;;;;1755088;27;20246;-66
2023/07/04 02:38:21;;;;;;;0.00;0.00;;;;;;;;;;1752717;28;20653;-66
2023/07/04 02:39:12;;;;;;;0.00;0.00;;;;;;;;;;1759099;28;20197;-65
2023/07/04 02:40:04;;;;;;;0.00;0.00;;;;;;;;;;1765145;27;20495;-65
2023/07/04 02:40:55;;;;;;;0.00;0.00;;;;;;;;;;1758624;27;20209;-65
2023/07/04 02:41:47;;;;;;;0.00;0.00;;;;;;;;;;1757512;28;20277;-65
2023/07/04 02:42:38;;;;;;;0.00;0.00;;;;;;;;;;1757812;27;20201;-65
2023/07/04 02:43:30;;;;;;;0.00;0.00;;;;;;;;;;1752476;27;20233;-65
2023/07/04 02:44:22;;;;;;;0.00;0.00;;;;;;;;;;1752390;28;20662;-65
2023/07/04 02:45:14;;;;;;;0.00;0.00;;;;;;;;;;1752451;28;20262;-66
2023/07/04 02:46:06;;;;;;;0.00;0.00;;;;;;;;;;1758717;27;20447;-65
2023/07/04 02:46:58;;;;;;;0.00;0.00;;;;;;;;;;1755362;28;20642;-65
2023/07/04 02:47:49;;;;;;;0.00;0.00;;;;;;;;;;1756145;28;20257;-65
2023/07/04 02:48:41;;;;;;;0.00;0.00;;;;;;;;;;1756688;28;20258;-65
2023/07/04 02:49:35;;;;;;;0.00;0.00;;;;;;;;;;1759313;28;20211;-65
2023/07/04 02:50:27;;;;;;;0.00;0.00;;;;;;;;;;1756508;28;20305;-64
2023/07/04 02:51:18;;;;;;;0.00;0.00;;;;;;;;;;1755169;28;20669;-65
2023/07/04 02:52:10;;;;;;;0.00;0.00;;;;;;;;;;1752141;28;20670;-65
2023/07/04 02:53:01;;;;;;;0.00;0.00;;;;;;;;;;1754873;27;20282;-65
2023/07/04 02:53:53;;;;;;;0.00;0.00;;;;;;;;;;1757427;27;20328;-65
2023/07/04 02:54:44;;;;;;;0.00;0.00;;;;;;;;;;1762073;27;20579;-65
2023/07/04 02:55:36;;;;;;;0.00;0.00;;;;;;;;;;1759966;27;20524;-65
2023/07/04 02:56:27;;;;;;;0.00;0.00;;;;;;;;;;1754753;27;20601;-65
2023/07/04 02:57:19;;;;;;;0.00;0.00;;;;;;;;;;1757212;27;20201;-65
2023/07/04 02:58:10;;;;;;;0.00;0.00;;;;;;;;;;1753312;27;20610;-65
2023/07/04 02:59:02;;;;;;;0.00;0.00;;;;;;;;;;1752622;27;20270;-65
2023/07/04 02:59:55;;;;;;;0.00;0.00;;;;;;;;;;1757902;27;20559;-65
2023/07/04 03:00:48;;;;;;;0.00;0.00;;;;;;;;;;1756417;28;20322;-65
2023/07/04 03:01:39;;;;;;;0.00;0.00;;;;;;;;;;1759167;28;20201;-65
2023/07/04 03:02:31;;;;;;;0.00;0.00;;;;;;;;;;1758033;28;20205;-65
2023/07/04 03:03:22;;;;;;;0.00;0.00;;;;;;;;;;1758051;28;20199;-65
2023/07/04 03:04:14;;;;;;;0.00;0.00;;;;;;;;;;1752247;28;20282;-65
2023/07/04 03:05:06;;;;;;;0.00;0.00;;;;;;;;;;1763992;27;20212;-64
2023/07/04 03:05:59;;;;;;;0.00;0.00;;;;;;;;;;1755443;28;20495;-65
2023/07/04 03:06:50;;;;;;;0.00;0.00;;;;;;;;;;1755684;28;20320;-65
2023/07/04 03:07:41;;;;;;;0.00;0.00;;;;;;;;;;1756922;28;20208;-65
2023/07/04 03:08:33;;;;;;;0.00;0.00;;;;;;;;;;1751282;28;20194;-65
2023/07/04 03:09:24;;;;;;;0.00;0.00;;;;;;;;;;1752234;28;20264;-65
2023/07/04 03:10:16;;;;;;;0.00;0.00;;;;;;;;;;1759477;28;20205;-65
2023/07/04 03:11:08;;;;;;;0.00;0.00;;;;;;;;;;1752427;28;20202;-65
2023/07/04 03:11:59;;;;;;;0.00;0.00;;;;;;;;;;1760497;27;20196;-65
2023/07/04 03:12:51;;;;;;;0.00;0.00;;;;;;;;;;1753091;27;20219;-65
2023/07/04 03:13:42;;;;;;;0.00;0.00;;;;;;;;;;1752410;27;20230;-65
2023/07/04 03:14:34;;;;;;;0.00;0.00;;;;;;;;;;1755089;27;20212;-65
2023/07/04 03:15:26;;;;;;;0.00;0.00;;;;;;;;;;1761042;27;20918;-65
2023/07/04 03:16:18;;;;;;;0.00;0.00;;;;;;;;;;1757896;27;20270;-65
2023/07/04 03:17:09;;;;;;;0.00;0.00;;;;;;;;;;1758252;27;20206;-65
2023/07/04 03:18:01;;;;;;;0.00;0.00;;;;;;;;;;1753127;27;20325;-65
2023/07/04 03:18:53;;;;;;;0.00;0.00;;;;;;;;;;1752896;28;20210;-65
2023/07/04 03:19:45;;;;;;;0.00;0.00;;;;;;;;;;1760472;27;20196;-65
2023/07/04 03:20:36;;;;;;;0.00;0.00;;;;;;;;;;1761468;27;20670;-65
2023/07/04 03:21:28;;;;;;;0.00;0.00;;;;;;;;;;1755654;27;20193;-65
2023/07/04 03:22:19;;;;;;;0.00;0.00;;;;;;;;;;1757184;27;20229;-65
2023/07/04 03:23:11;;;;;;;0.00;0.00;;;;;;;;;;1758654;28;20741;-65
2023/07/04 03:24:02;;;;;;;0.00;0.00;;;;;;;;;;1753866;28;20698;-66
2023/07/04 03:24:53;;;;;;;0.00;0.00;;;;;;;;;;1758336;28;20509;-65
2023/07/04 03:25:45;;;;;;;0.00;0.00;;;;;;;;;;1761512;27;20479;-65
2023/07/04 03:26:36;;;;;;;0.00;0.00;;;;;;;;;;1761049;27;20767;-65
2023/07/04 03:27:28;;;;;;;0.00;0.00;;;;;;;;;;1755339;27;20542;-65
2023/07/04 03:28:19;;;;;;;0.00;0.00;;;;;;;;;;1752497;28;20198;-65
2023/07/04 03:29:11;;;;;;;0.00;0.00;;;;;;;;;;1752574;27;20258;-65
2023/07/04 03:30:02;;;;;;;0.00;0.00;;;;;;;;;;1754969;28;20209;-65
2023/07/04 03:30:55;;;;;;;0.00;0.00;;;;;;;;;;1754723;28;20199;-66
2023/07/04 03:31:46;;;;;;;0.00;0.00;;;;;;;;;;1761455;27;20237;-65
2023/07/04 03:32:38;;;;;;;0.00;0.00;;;;;;;;;;1757754;27;20209;-65
2023/07/04 03:33:29;;;;;;;0.00;0.00;;;;;;;;;;1752706;28;20232;-65
2023/07/04 03:34:21;;;;;;;0.00;0.00;;;;;;;;;;1752171;28;20334;-65
2023/07/04 03:35:12;;;;;;;0.00;0.00;;;;;;;;;;1758846;28;20819;-65
2023/07/04 03:36:05;;;;;;;0.00;0.00;;;;;;;;;;1759652;27;20597;-65
2023/07/04 03:36:57;;;;;;;0.00;0.00;;;;;;;;;;1756587;28;20675;-65
2023/07/04 03:37:48;;;;;;;0.00;0.00;;;;;;;;;;1758970;28;20216;-66
2023/07/04 03:38:40;;;;;;;0.10;0.10;;;;;;;;;;1757305;28;20249;-66
2023/07/04 03:39:31;;;;;;;0.00;0.00;;;;;;;;;;1754571;27;20205;-66
2023/07/04 03:40:24;;;;;;;0.00;0.00;;;;;;;;;;1761317;27;20199;-66
2023/07/04 03:41:15;;;;;;;0.05;0.05;;;;;;;;;;1753564;28;20258;-66
2023/07/04 03:42:07;;;;;;;0.00;0.00;;;;;;;;;;1758726;27;20278;-66
2023/07/04 03:42:58;;;;;;;0.00;0.00;;;;;;;;;;1764299;27;20204;-66
2023/07/04 03:43:50;;;;;;;0.00;0.00;;;;;;;;;;1754657;27;20242;-66
2023/07/04 03:44:41;;;;;;;0.00;0.00;;;;;;;;;;1747734;28;20726;-67
2023/07/04 03:45:33;;;;;;;0.00;0.00;;;;;;;;;;1747230;28;20202;-66
2023/07/04 03:46:25;;;;;;;0.00;0.00;;;;;;;;;;1741637;28;20257;-65
2023/07/04 03:47:17;;;;;;;0.00;0.00;;;;;;;;;;1744225;28;20207;-66
2023/07/04 03:48:08;;;;;;;0.00;0.00;;;;;;;;;;1743726;28;20618;-66
2023/07/04 03:49:00;;;;;;;0.00;0.00;;;;;;;;;;1740829;28;20513;-66
2023/07/04 03:49:51;;;;;;;0.00;0.00;;;;;;;;;;1742297;28;20209;-66
2023/07/04 03:50:44;;;;;;;0.00;0.00;;;;;;;;;;1745130;28;20205;-66
2023/07/04 03:51:35;;;;;;;0.00;0.00;;;;;;;;;;1741887;28;20256;-65
2023/07/04 03:52:27;;;;;;;0.00;0.00;;;;;;;;;;1741727;28;20195;-65
2023/07/04 03:53:18;;;;;;;0.00;0.00;;;;;;;;;;1742517;28;20257;-67
2023/07/04 03:54:10;;;;;;;0.00;0.00;;;;;;;;;;1739800;28;20281;-66
2023/07/04 03:55:01;;;;;;;0.00;0.00;;;;;;;;;;1748520;28;20201;-65
2023/07/04 03:55:53;;;;;;;0.00;0.00;;;;;;;;;;1745588;28;20671;-66
2023/07/04 03:56:44;;;;;;;0.00;0.00;;;;;;;;;;1743904;28;20244;-66
2023/07/04 03:57:36;;;;;;;0.00;0.00;;;;;;;;;;1738904;28;20198;-66
2023/07/04 03:58:27;;;;;;;0.00;0.00;;;;;;;;;;1738729;28;20207;-65
2023/07/04 03:59:19;;;;;;;0.00;0.00;;;;;;;;;;1737897;28;20249;-66
2023/07/04 04:00:11;;;;;;;0.00;0.00;;;;;;;;;;1749933;28;20618;-67
2023/07/04 04:01:04;;;;;;;0.00;0.00;;;;;;;;;;1744054;28;20208;-66
2023/07/04 04:01:57;;;;;;;0.00;0.00;;;;;;;;;;1744406;28;20693;-67
2023/07/04 04:02:49;;;;;;;0.00;0.00;;;;;;;;;;1742600;28;20203;-67
2023/07/04 04:03:40;;;;;;;0.00;0.00;;;;;;;;;;1741860;28;20259;-67
2023/07/04 04:04:38;;;;;;;0.00;0.00;;;;;;;;;;1746263;28;20632;-66
2023/07/04 04:05:30;;;;;;;0.00;0.00;;;;;;;;;;1746978;28;20260;-66
2023/07/04 04:06:22;;;;;;;0.00;0.00;;;;;;;;;;1743083;28;20282;-67
2023/07/04 04:07:13;;;;;;;0.00;0.00;;;;;;;;;;1744573;28;20233;-67
2023/07/04 04:08:05;;;;;;;0.00;0.00;;;;;;;;;;1744891;28;20701;-66
2023/07/04 04:08:56;;;;;;;0.00;0.00;;;;;;;;;;1741022;28;20268;-67
2023/07/04 04:09:48;;;;;;;0.00;0.00;;;;;;;;;;1744433;28;20209;-66
2023/07/04 04:10:39;;;;;;;0.00;0.00;;;;;;;;;;1744767;28;20743;-66
2023/07/04 04:11:31;;;;;;;0.00;0.00;;;;;;;;;;1741908;28;20673;-66
2023/07/04 04:12:22;;;;;;;0.00;0.00;;;;;;;;;;1745092;28;20194;-67
2023/07/04 04:13:14;;;;;;;0.00;0.00;;;;;;;;;;1739165;28;20298;-67
2023/07/04 04:14:05;;;;;;;0.00;0.00;;;;;;;;;;1738087;28;20250;-66
2023/07/04 04:14:57;;;;;;;0.00;0.00;;;;;;;;;;1742584;28;20646;-66
2023/07/04 04:15:48;;;;;;;0.00;0.00;;;;;;;;;;1746935;28;20205;-67
2023/07/04 04:16:40;;;;;;;0.00;0.00;;;;;;;;;;1742511;28;20625;-67
2023/07/04 04:17:33;;;;;;;0.00;0.00;;;;;;;;;;1739528;28;20252;-66
2023/07/04 04:18:25;;;;;;;0.00;0.00;;;;;;;;;;1738015;28;20207;-66
2023/07/04 04:19:16;;;;;;;0.00;0.00;;;;;;;;;;1740787;28;20745;-66
2023/07/04 04:20:09;;;;;;;0.00;0.00;;;;;;;;;;1749464;28;20641;-66
2023/07/04 04:21:00;;;;;;;0.00;0.00;;;;;;;;;;1737667;28;20275;-66
2023/07/04 04:21:53;;;;;;;0.00;0.00;;;;;;;;;;1741189;28;20217;-66
2023/07/04 04:22:45;;;;;;;0.00;0.00;;;;;;;;;;1742245;28;20286;-67
2023/07/04 04:23:37;;;;;;;0.00;0.00;;;;;;;;;;1738224;28;20199;-66
2023/07/04 04:24:28;;;;;;;0.00;0.00;;;;;;;;;;1739008;28;20248;-66
2023/07/04 04:25:19;;;;;;;0.00;0.00;;;;;;;;;;1748074;28;20928;-66
2023/07/04 04:26:12;;;;;;;0.00;0.00;;;;;;;;;;1744241;28;20210;-66
2023/07/04 04:27:08;;;;;;;0.00;0.00;;;;;;;;;;1743547;28;20224;-67
2023/07/04 04:28:00;;;;;;;0.00;0.00;;;;;;;;;;1738448;28;20203;-66
2023/07/04 04:28:51;;;;;;;0.00;0.00;;;;;;;;;;1738199;28;20216;-66
2023/07/04 04:29:43;;;;;;;0.00;0.00;;;;;;;;;;1742451;28;20585;-66
2023/07/04 04:30:34;;;;;;;0.00;0.00;;;;;;;;;;1745184;28;20256;-66
2023/07/04 04:31:26;;;;;;;0.00;0.00;;;;;;;;;;1742244;28;20194;-65
2023/07/04 04:32:17;;;;;;;0.00;0.00;;;;;;;;;;1738237;28;20259;-66
2023/07/04 04:33:10;;;;;;;0.00;0.00;;;;;;;;;;1741630;28;20205;-66
2023/07/04 04:34:02;;;;;;;0.00;0.00;;;;;;;;;;1739805;28;20272;-66
2023/07/04 04:34:54;;;;;;;0.00;0.00;;;;;;;;;;1745850;28;20744;-67
2023/07/04 04:35:45;;;;;;;0.00;0.00;;;;;;;;;;1746243;28;20202;-66
2023/07/04 04:36:37;;;;;;;0.00;0.00;;;;;;;;;;1741324;28;20572;-66
2023/07/04 04:37:28;;;;;;;0.00;0.00;;;;;;;;;;1740462;28;20203;-66
2023/07/04 04:38:20;;;;;;;0.00;0.00;;;;;;;;;;1738105;28;20205;-66
2023/07/04 04:39:11;;;;;;;0.00;0.00;;;;;;;;;;1741612;28;20246;-67
2023/07/04 04:40:05;;;;;;;0.00;0.00;;;;;;;;;;1737718;28;20230;-66
2023/07/04 04:41:02;;;;;;;0.00;0.00;;;;;;;;;;1741660;28;20209;-66
2023/07/04 04:41:54;;;;;;;0.00;0.00;;;;;;;;;;1743902;28;20727;-66
2023/07/04 04:42:47;;;;;;;0.00;0.00;;;;;;;;;;1742199;28;20217;-66
2023/07/04 04:43:40;;;;;;;0.00;0.00;;;;;;;;;;1740593;28;20203;-67
2023/07/04 04:44:31;;;;;;;0.00;0.00;;;;;;;;;;1753507;28;20209;-66
2023/07/04 04:45:24;;;;;;;0.00;0.00;;;;;;;;;;1761330;28;20196;-67
2023/07/04 04:46:15;;;;;;;0.00;0.00;;;;;;;;;;1751898;28;20202;-67
2023/07/04 04:47:07;;;;;;;0.00;0.00;;;;;;;;;;1757697;28;20327;-66
2023/07/04 04:48:01;;;;;;;0.00;0.00;;;;;;;;;;1754998;28;20212;-67
2023/07/04 04:48:58;;;;;;;0.00;0.00;;;;;;;;;;1754977;28;20255;-67
2023/07/04 04:49:49;;;;;;;0.00;0.00;;;;;;;;;;1758484;28;20287;-66
2023/07/04 04:50:45;;;;;;;0.00;0.00;;;;;;;;;;1758311;28;20205;-67
2023/07/04 04:51:36;;;;;;;0.00;0.00;;;;;;;;;;1760282;28;20591;-66
2023/07/04 04:52:30;;;;;;;0.00;0.00;;;;;;;;;;1754539;28;20932;-66
2023/07/04 04:53:24;;;;;;;0.00;0.00;;;;;;;;;;1754940;28;20205;-67
2023/07/04 04:54:17;;;;;;;0.00;0.00;;;;;;;;;;1751619;28;20600;-67
2023/07/04 04:55:09;;;;;;;0.00;0.00;;;;;;;;;;1744391;28;20593;-66
2023/07/04 04:56:00;;;;;;;0.00;0.00;;;;;;;;;;1755464;28;20211;-67
2023/07/04 04:56:52;;;;;;;0.00;0.00;;;;;;;;;;1758091;28;20204;-66
2023/07/04 04:57:43;;;;;;;0.00;0.00;;;;;;;;;;1756007;28;20334;-66
2023/07/04 04:58:35;;;;;;;0.00;0.00;;;;;;;;;;1752755;28;20914;-66
2023/07/04 04:59:26;;;;;;;0.00;0.00;;;;;;;;;;1757203;28;20554;-66
2023/07/04 05:00:18;;;;;;;0.00;0.00;;;;;;;;;;1755415;28;20227;-66
2023/07/04 05:01:12;;;;;;;0.00;0.00;;;;;;;;;;1756705;28;20208;-66
2023/07/04 05:02:04;;;;;;;0.00;0.00;;;;;;;;;;1755202;28;20683;-66
2023/07/04 05:02:56;;;;;;;0.00;0.00;;;;;;;;;;1753217;28;20274;-66
2023/07/04 05:03:50;;;;;;;0.00;0.00;;;;;;;;;;1755622;28;20229;-65
2023/07/04 05:04:42;;;;;;;0.00;0.00;;;;;;;;;;1756206;28;20201;-66
2023/07/04 05:05:34;;;;;;;0.00;0.00;;;;;;;;;;1760154;28;20226;-66
2023/07/04 05:06:27;;;;;;;0.00;0.00;;;;;;;;;;1754592;28;20736;-65
2023/07/04 05:07:23;;;;;;;0.00;0.00;;;;;;;;;;1751547;28;20675;-67
2023/07/04 05:08:14;;;;;;;0.00;0.00;;;;;;;;;;1752633;28;20202;-66
2023/07/04 05:09:06;;;;;;;0.00;0.00;;;;;;;;;;1751578;28;20308;-66
2023/07/04 05:09:58;;;;;;;0.00;0.00;;;;;;;;;;1760854;28;20208;-66
2023/07/04 05:10:58;;;;;;;0.00;0.00;;;;;;;;;;1759533;28;20269;-66
2023/07/04 05:11:49;;;;;;;0.00;0.00;;;;;;;;;;1755655;28;20585;-66
2023/07/04 05:12:41;;;;;;;0.00;0.00;;;;;;;;;;1752033;28;20696;-66
2023/07/04 05:13:33;;;;;;;0.00;0.00;;;;;;;;;;1756674;28;20231;-67